createdAt,value
2022-12-31T00:00:03.558Z,2.33
2022-12-31T00:02:30.038Z,2.35
2022-12-31T00:04:56.403Z,2.47
2022-12-31T00:07:22.835Z,2.28
2022-12-31T00:09:49.223Z,2.15
2022-12-31T00:12:15.699Z,2.13
2022-12-31T00:14:42.128Z,1.88
2022-12-31T00:17:08.528Z,2.33
2022-12-31T00:19:34.926Z,2.42
2022-12-31T00:22:01.339Z,2.35
2022-12-31T00:24:31.023Z,2.25
2022-12-31T00:26:57.522Z,2.53
2022-12-31T00:29:23.940Z,2.05
2022-12-31T00:31:50.374Z,2.80
2022-12-31T00:34:16.767Z,2.60
2022-12-31T00:36:43.563Z,2.22
2022-12-31T00:39:10.290Z,2.55
2022-12-31T00:41:37.102Z,2.75
2022-12-31T00:44:04.090Z,2.67
2022-12-31T00:46:31.742Z,2.22
2022-12-31T00:48:58.363Z,2.58
2022-12-31T00:51:27.571Z,2.72
2022-12-31T00:56:22.039Z,2.60
2022-12-31T00:58:48.534Z,3.15
2022-12-31T01:01:15.013Z,2.38
2022-12-31T01:03:41.532Z,2.42
2022-12-31T01:06:08.577Z,2.80
2022-12-31T01:08:35.270Z,3.10
2022-12-31T01:11:22.579Z,2.67
2022-12-31T01:13:52.761Z,2.80
2022-12-31T01:16:26.216Z,2.78
2022-12-31T01:18:52.790Z,3.00
2022-12-31T01:21:19.943Z,2.55
2022-12-31T01:23:46.678Z,2.95
2022-12-31T01:26:13.881Z,3.05
2022-12-31T01:28:40.599Z,3.00
2022-12-31T01:31:08.288Z,3.75
2022-12-31T01:33:34.768Z,3.83
2022-12-31T01:36:12.754Z,3.20
2022-12-31T01:38:39.221Z,3.50
2022-12-31T01:41:06.008Z,3.03
2022-12-31T01:43:47.740Z,2.83
2022-12-31T01:46:17.784Z,3.72
2022-12-31T01:48:46.599Z,3.55
2022-12-31T01:51:13.004Z,3.13
2022-12-31T01:53:40.983Z,3.13
2022-12-31T01:56:07.610Z,3.50
2022-12-31T01:58:36.883Z,3.15
2022-12-31T02:01:03.548Z,2.92
2022-12-31T02:03:30.242Z,3.33
2022-12-31T02:06:10.951Z,3.40
2022-12-31T02:08:41.953Z,3.38
2022-12-31T02:11:22.841Z,3.35
2022-12-31T02:13:55.010Z,3.50
2022-12-31T02:16:24.678Z,3.60
2022-12-31T02:18:56.492Z,3.53
2022-12-31T02:21:26.001Z,3.58
2022-12-31T02:26:29.613Z,3.22
2022-12-31T02:29:14.599Z,3.55
2022-12-31T02:31:46.810Z,4.10
2022-12-31T02:34:17.915Z,3.53
2022-12-31T02:36:46.082Z,3.20
2022-12-31T02:39:13.412Z,3.97
2022-12-31T02:41:52.222Z,3.45
2022-12-31T02:44:29.222Z,3.45
2022-12-31T02:47:07.916Z,3.83
2022-12-31T02:49:37.374Z,3.42
2022-12-31T02:54:48.948Z,3.20
2022-12-31T02:57:15.361Z,3.80
2022-12-31T03:00:12.198Z,3.35
2022-12-31T03:02:39.982Z,3.63
2022-12-31T03:05:06.972Z,3.55
2022-12-31T03:07:33.524Z,3.65
2022-12-31T03:10:01.221Z,3.53
2022-12-31T03:12:48.648Z,3.60
2022-12-31T03:15:20.447Z,4.10
2022-12-31T03:18:02.264Z,3.80
2022-12-31T03:21:08.803Z,3.17
2022-12-31T03:23:50.296Z,3.28
2022-12-31T03:26:16.723Z,3.22
2022-12-31T03:28:47.953Z,3.40
2022-12-31T03:31:14.983Z,3.33
2022-12-31T03:33:41.827Z,3.60
2022-12-31T03:36:09.469Z,3.90
2022-12-31T03:38:35.913Z,4.05
2022-12-31T03:41:02.585Z,3.78
2022-12-31T03:43:28.987Z,3.17
2022-12-31T03:45:55.945Z,3.80
2022-12-31T03:48:23.314Z,3.70
2022-12-31T03:50:50.043Z,3.55
2022-12-31T03:53:16.918Z,3.60
2022-12-31T03:55:43.503Z,4.10
2022-12-31T03:58:09.997Z,3.70
2022-12-31T04:00:36.536Z,3.53
2022-12-31T04:03:02.929Z,4.45
2022-12-31T04:05:29.273Z,3.45
2022-12-31T04:07:56.528Z,3.25
2022-12-31T04:10:22.891Z,3.80
2022-12-31T04:12:49.314Z,3.65
2022-12-31T04:15:19.743Z,4.22
2022-12-31T04:17:46.704Z,3.97
2022-12-31T04:20:13.498Z,4.05
2022-12-31T04:22:39.905Z,3.85
2022-12-31T04:25:11.214Z,3.90
2022-12-31T04:27:41.449Z,4.72
2022-12-31T04:30:08.256Z,4.30
2022-12-31T04:32:34.684Z,4.80
2022-12-31T04:35:01.115Z,4.70
2022-12-31T04:37:27.516Z,4.30
2022-12-31T04:39:53.858Z,4.90
2022-12-31T04:42:20.305Z,4.90
2022-12-31T04:44:46.713Z,4.60
2022-12-31T04:47:13.909Z,4.47
2022-12-31T04:52:10.359Z,4.70
2022-12-31T04:54:36.733Z,4.22
2022-12-31T04:57:03.233Z,4.15
2022-12-31T04:59:29.588Z,4.50
2022-12-31T05:01:56.123Z,4.70
2022-12-31T05:04:22.597Z,4.43
2022-12-31T05:06:48.961Z,4.78
2022-12-31T05:09:15.349Z,4.78
2022-12-31T05:11:41.723Z,4.95
2022-12-31T05:14:08.092Z,4.32
2022-12-31T05:16:34.581Z,4.40
2022-12-31T05:19:01.056Z,4.30
2022-12-31T05:21:27.530Z,3.83
2022-12-31T05:23:54.032Z,4.47
2022-12-31T05:26:20.563Z,3.65
2022-12-31T05:28:46.947Z,4.00
2022-12-31T05:31:13.409Z,4.00
2022-12-31T05:33:39.828Z,3.90
2022-12-31T05:36:06.260Z,3.70
2022-12-31T05:38:32.766Z,3.17
2022-12-31T05:41:00.127Z,3.78
2022-12-31T05:43:26.590Z,3.42
2022-12-31T05:45:53.041Z,4.50
2022-12-31T05:48:19.507Z,3.35
2022-12-31T05:50:45.848Z,4.50
2022-12-31T05:53:12.193Z,3.50
2022-12-31T05:55:38.721Z,3.30
2022-12-31T05:58:05.208Z,3.38
2022-12-31T06:00:31.635Z,3.45
2022-12-31T06:02:58.139Z,3.58
2022-12-31T06:05:26.583Z,4.82
2022-12-31T06:07:53.239Z,3.73
2022-12-31T06:10:19.846Z,4.07
2022-12-31T06:12:46.301Z,4.25
2022-12-31T06:15:12.649Z,3.95
2022-12-31T06:17:39.125Z,4.28
2022-12-31T06:20:12.221Z,3.22
2022-12-31T06:22:39.394Z,4.00
2022-12-31T06:25:06.205Z,4.15
2022-12-31T06:27:32.585Z,4.63
2022-12-31T06:29:58.962Z,5.80
2022-12-31T06:32:25.344Z,5.05
2022-12-31T06:34:51.757Z,5.95
2022-12-31T06:37:18.170Z,6.63
2022-12-31T06:39:44.530Z,6.38
2022-12-31T06:42:10.885Z,7.20
2022-12-31T06:44:37.273Z,6.82
2022-12-31T06:47:03.695Z,7.65
2022-12-31T06:49:30.360Z,7.30
2022-12-31T06:51:56.805Z,6.38
2022-12-31T06:54:23.268Z,7.22
2022-12-31T06:56:49.801Z,6.47
2022-12-31T06:59:26.866Z,6.03
2022-12-31T07:02:16.337Z,6.43
2022-12-31T07:07:29.333Z,5.88
2022-12-31T07:10:05.843Z,6.35
2022-12-31T07:12:39.468Z,6.78
2022-12-31T07:15:11.759Z,7.10
2022-12-31T07:17:40.892Z,7.10
2022-12-31T07:20:10.252Z,7.55
2022-12-31T07:25:03.617Z,7.22
2022-12-31T07:27:36.016Z,7.30
2022-12-31T07:30:14.182Z,7.38
2022-12-31T07:32:40.489Z,7.15
2022-12-31T07:35:32.922Z,7.22
2022-12-31T07:38:10.275Z,6.88
2022-12-31T07:40:41.335Z,6.85
2022-12-31T07:43:12.845Z,6.97
2022-12-31T07:45:47.722Z,7.13
2022-12-31T07:48:20.559Z,6.90
2022-12-31T07:50:47.345Z,6.88
2022-12-31T07:53:13.796Z,6.78
2022-12-31T07:55:40.194Z,6.93
2022-12-31T07:58:15.864Z,6.88
2022-12-31T08:00:42.323Z,6.45
2022-12-31T08:03:17.344Z,6.50
2022-12-31T08:05:43.806Z,6.25
2022-12-31T08:08:29.146Z,5.85
2022-12-31T08:11:01.349Z,5.63
2022-12-31T08:13:27.782Z,5.82
2022-12-31T08:15:54.381Z,5.93
2022-12-31T08:18:20.927Z,5.45
2022-12-31T08:21:10.482Z,5.70
2022-12-31T08:23:43.966Z,5.65
2022-12-31T08:26:22.704Z,6.30
2022-12-31T08:29:05.040Z,5.68
2022-12-31T08:31:34.543Z,5.35
2022-12-31T08:36:38.504Z,5.20
2022-12-31T08:39:12.837Z,5.82
2022-12-31T08:41:46.886Z,5.55
2022-12-31T08:44:25.443Z,6.05
2022-12-31T08:47:03.988Z,6.03
2022-12-31T08:49:32.528Z,6.27
2022-12-31T08:51:59.530Z,6.33
2022-12-31T08:54:26.145Z,6.53
2022-12-31T08:57:11.880Z,6.53
2022-12-31T08:59:44.177Z,7.05
2022-12-31T09:02:10.647Z,7.15
2022-12-31T09:04:40.079Z,6.93
2022-12-31T09:09:33.179Z,8.10
2022-12-31T09:12:18.491Z,7.53
2022-12-31T09:14:57.862Z,7.10
2022-12-31T09:19:50.812Z,6.60
2022-12-31T09:22:17.416Z,6.53
2022-12-31T09:24:44.046Z,7.20
2022-12-31T09:27:20.102Z,6.43
2022-12-31T09:29:51.985Z,7.13
2022-12-31T09:32:18.471Z,6.93
2022-12-31T09:34:48.166Z,7.80
2022-12-31T09:37:18.016Z,7.35
2022-12-31T09:39:45.618Z,7.60
2022-12-31T09:42:18.349Z,6.90
2022-12-31T09:45:03.426Z,6.85
2022-12-31T09:47:48.548Z,6.97
2022-12-31T09:50:27.407Z,6.40
2022-12-31T09:53:08.991Z,6.28
2022-12-31T09:55:38.542Z,6.15
2022-12-31T09:58:17.006Z,6.20
2022-12-31T10:00:46.813Z,4.93
2022-12-31T10:03:34.146Z,5.85
2022-12-31T10:06:00.596Z,5.47
2022-12-31T10:08:42.510Z,4.97
2022-12-31T10:11:19.649Z,4.30
2022-12-31T10:13:49.004Z,4.65
2022-12-31T10:16:21.404Z,4.55
2022-12-31T10:19:06.089Z,4.35
2022-12-31T10:21:51.161Z,4.45
2022-12-31T10:24:36.423Z,3.72
2022-12-31T10:27:02.848Z,4.22
2022-12-31T10:29:32.094Z,5.25
2022-12-31T10:32:04.525Z,4.18
2022-12-31T10:34:34.617Z,5.40
2022-12-31T10:37:08.381Z,5.53
2022-12-31T10:39:34.757Z,5.03
2022-12-31T10:42:10.398Z,4.82
2022-12-31T10:44:39.844Z,5.60
2022-12-31T10:49:32.680Z,5.22
2022-12-31T10:52:18.003Z,5.22
2022-12-31T10:55:19.787Z,5.72
2022-12-31T10:57:51.971Z,5.57
2022-12-31T11:00:27.272Z,4.80
2022-12-31T11:03:12.117Z,5.20
2022-12-31T11:05:47.824Z,4.70
2022-12-31T11:08:14.275Z,5.15
2022-12-31T11:10:43.707Z,4.93
2022-12-31T11:16:12.143Z,4.35
2022-12-31T11:18:47.609Z,4.20
2022-12-31T11:21:28.245Z,4.05
2022-12-31T11:24:13.492Z,4.28
2022-12-31T11:26:58.585Z,4.13
2022-12-31T11:29:25.029Z,3.92
2022-12-31T11:31:52.428Z,4.30
2022-12-31T11:34:18.781Z,4.10
2022-12-31T11:37:04.166Z,4.22
2022-12-31T11:39:35.653Z,4.93
2022-12-31T11:42:04.886Z,4.40
2022-12-31T11:44:50.803Z,4.38
2022-12-31T11:47:29.499Z,3.78
2022-12-31T11:49:55.995Z,3.90
2022-12-31T11:52:33.473Z,3.38
2022-12-31T11:55:02.912Z,3.60
2022-12-31T12:00:04.744Z,3.50
2022-12-31T12:02:35.147Z,3.45
2022-12-31T12:05:10.108Z,3.60
2022-12-31T12:07:37.415Z,4.15
2022-12-31T12:10:14.139Z,3.63
2022-12-31T12:12:40.877Z,3.25
2022-12-31T12:15:08.638Z,2.85
2022-12-31T12:17:35.497Z,2.63
2022-12-31T12:20:22.272Z,2.88
2022-12-31T12:22:56.445Z,2.90
2022-12-31T12:25:25.347Z,2.58
2022-12-31T12:27:52.129Z,3.03
2022-12-31T12:30:22.996Z,3.15
2022-12-31T12:32:56.748Z,3.10
2022-12-31T12:35:24.734Z,3.55
2022-12-31T12:37:59.136Z,3.30
2022-12-31T12:40:33.328Z,3.88
2022-12-31T12:43:01.417Z,3.58
2022-12-31T12:45:30.120Z,3.30
2022-12-31T12:47:59.567Z,3.42
2022-12-31T12:53:16.207Z,3.13
2022-12-31T12:56:15.243Z,2.92
2022-12-31T12:58:56.751Z,2.80
2022-12-31T13:01:23.368Z,2.95
2022-12-31T13:04:32.542Z,3.53
2022-12-31T13:06:42.478Z,2.85
2022-12-31T13:09:17.178Z,2.97
2022-12-31T13:11:52.813Z,3.28
2022-12-31T13:14:21.978Z,3.40
2022-12-31T13:16:53.966Z,3.28
2022-12-31T13:19:20.406Z,3.58
2022-12-31T13:21:55.590Z,3.20
2022-12-31T13:24:22.019Z,3.47
2022-12-31T13:27:06.617Z,3.63
2022-12-31T13:29:34.067Z,3.42
2022-12-31T13:32:02.099Z,3.50
2022-12-31T13:34:33.793Z,3.05
2022-12-31T13:37:03.428Z,3.50
2022-12-31T13:39:32.004Z,2.80
2022-12-31T13:42:05.446Z,3.23
2022-12-31T13:45:10.375Z,3.42
2022-12-31T13:47:39.362Z,4.10
2022-12-31T13:50:15.164Z,4.20
2022-12-31T13:52:45.279Z,3.45
2022-12-31T13:55:17.526Z,4.15
2022-12-31T13:58:16.583Z,3.33
2022-12-31T14:01:09.120Z,3.10
2022-12-31T14:03:52.280Z,3.08
2022-12-31T14:06:37.746Z,3.08
2022-12-31T14:09:05.262Z,2.75
2022-12-31T14:11:34.518Z,3.00
2022-12-31T14:14:15.759Z,2.28
2022-12-31T14:17:00.708Z,2.67
2022-12-31T14:19:34.200Z,2.40
2022-12-31T14:22:20.319Z,2.72
2022-12-31T14:24:51.192Z,2.53
2022-12-31T14:27:49.818Z,2.30
2022-12-31T14:30:28.337Z,2.50
2022-12-31T14:33:00.871Z,2.70
2022-12-31T14:35:36.774Z,2.30
2022-12-31T14:38:28.539Z,2.03
2022-12-31T14:41:19.065Z,1.85
2022-12-31T14:43:45.459Z,2.20
2022-12-31T14:46:32.281Z,2.28
2022-12-31T14:49:17.851Z,2.08
2022-12-31T14:51:44.834Z,1.83
2022-12-31T14:54:29.022Z,2.22
2022-12-31T14:56:55.802Z,2.15
2022-12-31T14:59:25.412Z,2.30
2022-12-31T15:01:52.362Z,2.30
2022-12-31T15:04:39.877Z,2.17
2022-12-31T15:07:16.663Z,2.55
2022-12-31T15:09:52.079Z,2.60
2022-12-31T15:12:37.060Z,2.53
2022-12-31T15:15:22.620Z,2.28
2022-12-31T15:17:57.087Z,2.30
2022-12-31T15:20:32.014Z,2.30
2022-12-31T15:22:58.776Z,2.47
2022-12-31T15:25:38.654Z,2.20
2022-12-31T15:28:27.528Z,2.10
2022-12-31T15:30:56.044Z,1.77
2022-12-31T15:33:28.969Z,1.83
2022-12-31T15:35:56.789Z,2.03
2022-12-31T15:38:30.951Z,2.13
2022-12-31T15:40:57.544Z,2.28
2022-12-31T15:43:24.039Z,2.40
2022-12-31T15:45:52.416Z,2.22
2022-12-31T15:48:22.332Z,2.30
2022-12-31T15:50:51.351Z,2.10
2022-12-31T15:53:33.609Z,1.90
2022-12-31T15:56:01.471Z,2.25
2022-12-31T15:58:30.927Z,2.30
2022-12-31T16:03:25.823Z,1.98
2022-12-31T16:05:54.260Z,2.10
2022-12-31T16:08:24.834Z,2.55
2022-12-31T16:10:51.368Z,2.10
2022-12-31T16:13:19.644Z,2.20
2022-12-31T16:15:48.637Z,2.10
2022-12-31T16:18:20.817Z,2.28
2022-12-31T16:20:49.446Z,2.50
2022-12-31T16:23:20.003Z,2.50
2022-12-31T16:25:46.549Z,2.22
2022-12-31T16:28:16.708Z,2.60
2022-12-31T16:30:43.474Z,3.10
2022-12-31T16:33:14.491Z,2.83
2022-12-31T16:35:40.947Z,2.97
2022-12-31T16:38:07.724Z,3.53
2022-12-31T16:40:34.381Z,3.50
2022-12-31T16:43:01.220Z,3.92
2022-12-31T16:45:36.883Z,4.95
2022-12-31T16:48:17.177Z,5.10
2022-12-31T16:50:45.610Z,5.57
2022-12-31T16:53:13.842Z,5.20
2022-12-31T16:55:43.605Z,4.60
2022-12-31T16:58:19.127Z,3.88
2022-12-31T17:00:46.265Z,3.53
2022-12-31T17:03:23.333Z,4.60
2022-12-31T17:05:58.104Z,4.15
2022-12-31T17:08:26.630Z,4.03
2022-12-31T17:10:53.415Z,4.60
2022-12-31T17:13:27.963Z,4.07
2022-12-31T17:15:56.732Z,4.80
2022-12-31T17:18:25.543Z,3.78
2022-12-31T17:20:56.024Z,4.05
2022-12-31T17:23:22.544Z,3.47
2022-12-31T17:25:49.114Z,3.70
2022-12-31T17:28:18.424Z,3.70
2022-12-31T17:30:44.934Z,3.88
2022-12-31T17:33:11.313Z,3.83
2022-12-31T17:35:42.107Z,3.83
2022-12-31T17:38:23.807Z,3.90
2022-12-31T17:40:52.464Z,4.10
2022-12-31T17:43:20.400Z,3.65
2022-12-31T17:45:47.431Z,4.40
2022-12-31T17:48:17.905Z,4.22
2022-12-31T17:50:51.855Z,3.88
2022-12-31T17:53:18.291Z,4.03
2022-12-31T17:55:45.918Z,3.92
2022-12-31T17:58:29.294Z,3.60
2022-12-31T18:00:56.317Z,3.88
2022-12-31T18:03:22.799Z,3.50
2022-12-31T18:05:49.224Z,3.58
2022-12-31T18:08:15.592Z,3.85
2022-12-31T18:10:42.811Z,3.33
2022-12-31T18:13:15.302Z,2.75
2022-12-31T18:15:41.658Z,3.53
2022-12-31T18:18:24.315Z,3.80
2022-12-31T18:20:53.658Z,3.92
2022-12-31T18:23:22.722Z,2.90
2022-12-31T18:25:49.624Z,4.80
2022-12-31T18:28:16.089Z,8.15
2022-12-31T18:30:43.312Z,5.80
2022-12-31T18:33:11.788Z,4.22
2022-12-31T18:36:07.699Z,4.20
2022-12-31T18:38:26.553Z,3.35
2022-12-31T18:40:57.065Z,5.32
2022-12-31T18:43:23.589Z,3.75
2022-12-31T18:45:51.189Z,4.10
2022-12-31T18:48:18.122Z,3.35
2022-12-31T18:50:44.916Z,4.00
2022-12-31T18:53:19.301Z,3.90
2022-12-31T18:55:50.542Z,4.82
2022-12-31T18:58:16.960Z,4.93
2022-12-31T19:00:43.839Z,3.95
2022-12-31T19:03:13.770Z,5.13
2022-12-31T19:05:40.225Z,5.07
2022-12-31T19:08:06.676Z,4.93
2022-12-31T19:10:33.796Z,4.22
2022-12-31T19:13:00.227Z,4.43
2022-12-31T19:15:32.969Z,4.45
2022-12-31T19:18:00.059Z,4.65
2022-12-31T19:20:26.538Z,4.82
2022-12-31T19:22:52.958Z,4.70
2022-12-31T19:25:19.359Z,4.60
2022-12-31T19:27:45.930Z,4.32
2022-12-31T19:30:23.524Z,4.22
2022-12-31T19:32:50.440Z,4.47
2022-12-31T19:35:17.182Z,4.85
2022-12-31T19:37:44.468Z,4.90
2022-12-31T19:40:13.319Z,5.15
2022-12-31T19:42:39.660Z,4.13
2022-12-31T19:45:06.230Z,5.13
2022-12-31T19:47:32.590Z,4.90
2022-12-31T19:49:58.941Z,4.82
2022-12-31T19:52:25.318Z,4.63
2022-12-31T19:54:51.673Z,5.07
2022-12-31T19:57:18.076Z,5.28
2022-12-31T19:59:44.519Z,5.22
2022-12-31T20:02:11.117Z,5.38
2022-12-31T20:04:37.731Z,5.30
2022-12-31T20:07:04.182Z,6.15
2022-12-31T20:09:30.565Z,10.20
2022-12-31T20:11:56.938Z,14.00
2022-12-31T20:14:23.384Z,16.15
2022-12-31T20:16:50.457Z,15.65
2022-12-31T20:19:16.982Z,14.10
2022-12-31T20:21:45.029Z,13.63
2022-12-31T20:24:11.459Z,12.77
2022-12-31T20:26:37.987Z,11.70
2022-12-31T20:29:04.491Z,11.48
2022-12-31T20:31:30.878Z,10.15
2022-12-31T20:33:57.340Z,9.55
2022-12-31T20:36:24.048Z,9.20
2022-12-31T20:38:50.539Z,9.02
2022-12-31T20:41:18.622Z,9.13
2022-12-31T20:43:45.443Z,8.80
2022-12-31T20:46:15.570Z,8.25
2022-12-31T20:48:47.971Z,7.78
2022-12-31T20:51:15.229Z,7.80
2022-12-31T20:53:45.953Z,7.45
2022-12-31T20:56:12.582Z,8.05
2022-12-31T20:58:42.311Z,10.15
2022-12-31T21:01:09.894Z,9.90
2022-12-31T21:04:04.123Z,10.32
2022-12-31T21:06:24.157Z,10.25
2022-12-31T21:08:50.739Z,10.40
2022-12-31T21:11:36.066Z,10.32
2022-12-31T21:14:06.757Z,9.38
2022-12-31T21:16:33.134Z,9.38
2022-12-31T21:18:59.647Z,9.20
2022-12-31T21:21:26.117Z,9.93
2022-12-31T21:23:52.557Z,10.93
2022-12-31T21:26:19.143Z,11.30
2022-12-31T21:28:45.644Z,10.98
2022-12-31T21:31:13.576Z,11.25
2022-12-31T21:33:43.196Z,10.13
2022-12-31T21:36:09.672Z,10.30
2022-12-31T21:38:36.369Z,11.43
2022-12-31T21:41:03.646Z,10.68
2022-12-31T21:43:30.115Z,11.27
2022-12-31T21:46:00.744Z,11.88
2022-12-31T21:48:27.246Z,10.85
2022-12-31T21:50:55.203Z,11.43
2022-12-31T21:53:26.176Z,9.43
2022-12-31T21:56:16.106Z,10.25
2022-12-31T21:58:47.184Z,9.73
2022-12-31T22:01:34.735Z,9.25
2022-12-31T22:04:01.182Z,9.05
2022-12-31T22:06:27.576Z,9.82
2022-12-31T22:08:55.274Z,9.15
2022-12-31T22:11:23.351Z,9.18
2022-12-31T22:13:50.608Z,9.20
2022-12-31T22:16:19.063Z,8.73
2022-12-31T22:18:45.721Z,9.50
2022-12-31T22:21:19.830Z,9.00
2022-12-31T22:23:54.154Z,8.18
2022-12-31T22:26:22.035Z,7.35
2022-12-31T22:28:48.429Z,7.93
2022-12-31T22:31:19.531Z,7.70
2022-12-31T22:33:46.391Z,8.00
2022-12-31T22:36:14.282Z,7.82
2022-12-31T22:38:40.749Z,8.02
2022-12-31T22:41:14.581Z,8.95
2022-12-31T22:43:45.068Z,8.20
2022-12-31T22:46:18.652Z,8.00
2022-12-31T22:48:45.921Z,8.25
2022-12-31T22:51:13.375Z,7.45
2022-12-31T22:53:41.109Z,7.50
2022-12-31T22:56:07.956Z,6.13
2022-12-31T22:58:34.774Z,6.70
2022-12-31T23:01:04.076Z,7.25
2022-12-31T23:03:30.607Z,17.45
2022-12-31T23:05:57.092Z,35.70
2022-12-31T23:08:24.188Z,39.97
2022-12-31T23:11:00.940Z,40.40
2022-12-31T23:13:50.674Z,40.17
2022-12-31T23:16:36.172Z,36.90
2022-12-31T23:19:21.547Z,33.83
2022-12-31T23:22:06.568Z,33.92
2022-12-31T23:24:32.995Z,35.17
2022-12-31T23:26:59.511Z,37.33
2022-12-31T23:29:26.238Z,33.75
2022-12-31T23:31:53.091Z,35.00
2022-12-31T23:34:19.687Z,30.63
2022-12-31T23:36:46.278Z,29.67
2022-12-31T23:39:13.519Z,27.77
2022-12-31T23:41:40.019Z,27.20
2022-12-31T23:44:06.494Z,28.33
2022-12-31T23:46:32.924Z,31.60
2022-12-31T23:48:59.304Z,32.13
2022-12-31T23:51:25.782Z,37.72
2022-12-31T23:53:52.298Z,41.40
2022-12-31T23:56:23.579Z,48.03
2022-12-31T23:58:57.663Z,50.28
